sensor_id;sensor_type;location;lat;lon;timestamp;P1;durP1;ratioP1;P2;durP2;ratioP2
14474;SDS011;7323;50.848;4.334;2022-10-13T00:01:45;10.43;;;8.10;;
14474;SDS011;7323;50.848;4.334;2022-10-13T00:04:11;11.57;;;7.40;;
14474;SDS011;7323;50.848;4.334;2022-10-13T00:06:37;13.00;;;7.60;;
14474;SDS011;7323;50.848;4.334;2022-10-13T00:09:02;10.47;;;7.37;;
14474;SDS011;7323;50.848;4.334;2022-10-13T00:11:28;9.57;;;7.70;;
14474;SDS011;7323;50.848;4.334;2022-10-13T00:13:55;10.73;;;7.53;;
14474;SDS011;7323;50.848;4.334;2022-10-13T00:16:22;10.40;;;7.77;;
14474;SDS011;7323;50.848;4.334;2022-10-13T00:18:49;10.47;;;7.37;;
14474;SDS011;7323;50.848;4.334;2022-10-13T00:21:16;12.17;;;8.03;;
14474;SDS011;7323;50.848;4.334;2022-10-13T00:23:50;11.37;;;8.83;;
14474;SDS011;7323;50.848;4.334;2022-10-13T00:26:18;12.37;;;7.97;;
14474;SDS011;7323;50.848;4.334;2022-10-13T00:28:45;10.67;;;7.47;;
14474;SDS011;7323;50.848;4.334;2022-10-13T00:33:52;11.30;;;7.63;;
14474;SDS011;7323;50.848;4.334;2022-10-13T00:36:19;13.63;;;8.43;;
14474;SDS011;7323;50.848;4.334;2022-10-13T00:38:46;13.20;;;8.50;;
14474;SDS011;7323;50.848;4.334;2022-10-13T00:41:12;12.63;;;8.67;;
14474;SDS011;7323;50.848;4.334;2022-10-13T00:46:13;13.30;;;8.53;;
14474;SDS011;7323;50.848;4.334;2022-10-13T00:48:40;15.50;;;9.27;;
14474;SDS011;7323;50.848;4.334;2022-10-13T00:51:07;14.27;;;9.20;;
14474;SDS011;7323;50.848;4.334;2022-10-13T00:53:35;13.83;;;9.00;;
14474;SDS011;7323;50.848;4.334;2022-10-13T00:56:04;13.67;;;8.33;;
14474;SDS011;7323;50.848;4.334;2022-10-13T00:58:33;16.57;;;8.77;;
14474;SDS011;7323;50.848;4.334;2022-10-13T01:01:00;12.73;;;7.93;;
14474;SDS011;7323;50.848;4.334;2022-10-13T01:03:29;12.13;;;9.07;;
14474;SDS011;7323;50.848;4.334;2022-10-13T01:05:56;15.57;;;8.53;;
14474;SDS011;7323;50.848;4.334;2022-10-13T01:08:24;14.73;;;8.17;;
14474;SDS011;7323;50.848;4.334;2022-10-13T01:13:42;11.93;;;8.33;;
14474;SDS011;7323;50.848;4.334;2022-10-13T01:16:26;12.70;;;8.00;;
14474;SDS011;7323;50.848;4.334;2022-10-13T01:19:42;13.00;;;8.60;;
14474;SDS011;7323;50.848;4.334;2022-10-13T01:27:37;14.57;;;9.30;;
14474;SDS011;7323;50.848;4.334;2022-10-13T01:38:24;14.57;;;9.93;;
14474;SDS011;7323;50.848;4.334;2022-10-13T01:41:07;13.40;;;10.60;;
14474;SDS011;7323;50.848;4.334;2022-10-13T01:44:22;17.90;;;14.17;;
14474;SDS011;7323;50.848;4.334;2022-10-13T01:47:01;24.77;;;19.87;;
14474;SDS011;7323;50.848;4.334;2022-10-13T01:49:29;32.67;;;26.23;;
14474;SDS011;7323;50.848;4.334;2022-10-13T01:52:02;31.97;;;26.57;;
14474;SDS011;7323;50.848;4.334;2022-10-13T01:54:33;35.20;;;27.90;;
14474;SDS011;7323;50.848;4.334;2022-10-13T01:56:59;32.63;;;27.90;;
14474;SDS011;7323;50.848;4.334;2022-10-13T01:59:25;36.30;;;27.77;;
14474;SDS011;7323;50.848;4.334;2022-10-13T02:05:00;30.10;;;23.67;;
14474;SDS011;7323;50.848;4.334;2022-10-13T02:08:06;31.20;;;24.37;;
14474;SDS011;7323;50.848;4.334;2022-10-13T02:10:32;31.60;;;23.50;;
14474;SDS011;7323;50.848;4.334;2022-10-13T02:13:05;30.80;;;22.20;;
14474;SDS011;7323;50.848;4.334;2022-10-13T02:18:31;25.93;;;19.60;;
14474;SDS011;7323;50.848;4.334;2022-10-13T02:20:58;24.63;;;17.33;;
14474;SDS011;7323;50.848;4.334;2022-10-13T02:23:25;22.57;;;15.33;;
14474;SDS011;7323;50.848;4.334;2022-10-13T02:25:52;19.47;;;14.27;;
14474;SDS011;7323;50.848;4.334;2022-10-13T02:28:19;20.13;;;13.70;;
14474;SDS011;7323;50.848;4.334;2022-10-13T02:30:45;18.97;;;13.30;;
14474;SDS011;7323;50.848;4.334;2022-10-13T02:33:11;17.87;;;12.97;;
14474;SDS011;7323;50.848;4.334;2022-10-13T02:35:38;16.17;;;12.60;;
14474;SDS011;7323;50.848;4.334;2022-10-13T02:38:04;19.60;;;11.93;;
14474;SDS011;7323;50.848;4.334;2022-10-13T02:43:01;16.63;;;12.77;;
14474;SDS011;7323;50.848;4.334;2022-10-13T02:45:29;18.27;;;12.17;;
14474;SDS011;7323;50.848;4.334;2022-10-13T02:48:08;17.07;;;12.00;;
14474;SDS011;7323;50.848;4.334;2022-10-13T02:50:37;17.33;;;11.70;;
14474;SDS011;7323;50.848;4.334;2022-10-13T02:53:03;17.27;;;11.77;;
14474;SDS011;7323;50.848;4.334;2022-10-13T02:55:28;18.20;;;11.67;;
14474;SDS011;7323;50.848;4.334;2022-10-13T02:57:55;17.27;;;11.70;;
14474;SDS011;7323;50.848;4.334;2022-10-13T03:00:21;21.13;;;12.73;;
14474;SDS011;7323;50.848;4.334;2022-10-13T03:02:48;19.80;;;12.33;;
14474;SDS011;7323;50.848;4.334;2022-10-13T03:05:13;18.93;;;13.17;;
14474;SDS011;7323;50.848;4.334;2022-10-13T03:07:40;15.03;;;12.50;;
14474;SDS011;7323;50.848;4.334;2022-10-13T03:10:07;19.47;;;12.53;;
14474;SDS011;7323;50.848;4.334;2022-10-13T03:12:41;20.50;;;12.57;;
14474;SDS011;7323;50.848;4.334;2022-10-13T03:15:07;17.77;;;12.50;;
14474;SDS011;7323;50.848;4.334;2022-10-13T03:17:33;19.47;;;12.50;;
14474;SDS011;7323;50.848;4.334;2022-10-13T03:19:58;20.10;;;11.97;;
14474;SDS011;7323;50.848;4.334;2022-10-13T03:22:24;18.73;;;12.43;;
14474;SDS011;7323;50.848;4.334;2022-10-13T03:24:50;19.63;;;12.60;;
14474;SDS011;7323;50.848;4.334;2022-10-13T03:27:15;22.03;;;12.50;;
14474;SDS011;7323;50.848;4.334;2022-10-13T03:29:41;19.53;;;12.30;;
14474;SDS011;7323;50.848;4.334;2022-10-13T03:32:07;17.27;;;12.07;;
14474;SDS011;7323;50.848;4.334;2022-10-13T03:34:32;16.77;;;12.07;;
14474;SDS011;7323;50.848;4.334;2022-10-13T03:36:58;15.33;;;11.33;;
14474;SDS011;7323;50.848;4.334;2022-10-13T03:39:24;17.03;;;11.70;;
14474;SDS011;7323;50.848;4.334;2022-10-13T03:41:49;18.73;;;11.03;;
14474;SDS011;7323;50.848;4.334;2022-10-13T03:44:15;17.57;;;12.33;;
14474;SDS011;7323;50.848;4.334;2022-10-13T03:46:41;17.80;;;11.20;;
14474;SDS011;7323;50.848;4.334;2022-10-13T03:49:07;17.67;;;11.97;;
14474;SDS011;7323;50.848;4.334;2022-10-13T03:51:35;17.17;;;11.67;;
14474;SDS011;7323;50.848;4.334;2022-10-13T03:54:00;17.47;;;12.90;;
14474;SDS011;7323;50.848;4.334;2022-10-13T03:56:26;21.00;;;12.73;;
14474;SDS011;7323;50.848;4.334;2022-10-13T03:58:54;18.80;;;12.60;;
14474;SDS011;7323;50.848;4.334;2022-10-13T04:01:22;18.80;;;12.33;;
14474;SDS011;7323;50.848;4.334;2022-10-13T04:03:49;19.63;;;12.93;;
14474;SDS011;7323;50.848;4.334;2022-10-13T04:06:16;20.73;;;12.37;;
14474;SDS011;7323;50.848;4.334;2022-10-13T04:08:42;16.90;;;12.40;;
14474;SDS011;7323;50.848;4.334;2022-10-13T04:11:09;21.33;;;12.40;;
14474;SDS011;7323;50.848;4.334;2022-10-13T04:13:37;21.50;;;11.73;;
14474;SDS011;7323;50.848;4.334;2022-10-13T04:16:07;17.47;;;11.63;;
14474;SDS011;7323;50.848;4.334;2022-10-13T04:18:37;16.57;;;12.03;;
14474;SDS011;7323;50.848;4.334;2022-10-13T04:21:07;17.73;;;12.43;;
14474;SDS011;7323;50.848;4.334;2022-10-13T04:23:36;18.50;;;12.50;;
14474;SDS011;7323;50.848;4.334;2022-10-13T04:26:02;15.83;;;12.03;;
14474;SDS011;7323;50.848;4.334;2022-10-13T04:28:29;17.60;;;12.67;;
14474;SDS011;7323;50.848;4.334;2022-10-13T04:30:57;17.40;;;11.93;;
14474;SDS011;7323;50.848;4.334;2022-10-13T04:33:23;16.93;;;11.37;;
14474;SDS011;7323;50.848;4.334;2022-10-13T04:35:48;18.80;;;11.37;;
14474;SDS011;7323;50.848;4.334;2022-10-13T04:38:15;17.83;;;12.47;;
14474;SDS011;7323;50.848;4.334;2022-10-13T04:40:41;16.27;;;11.60;;
14474;SDS011;7323;50.848;4.334;2022-10-13T04:43:06;17.20;;;11.53;;
14474;SDS011;7323;50.848;4.334;2022-10-13T04:45:32;16.37;;;11.83;;
14474;SDS011;7323;50.848;4.334;2022-10-13T04:47:59;20.90;;;11.27;;
14474;SDS011;7323;50.848;4.334;2022-10-13T04:50:25;19.93;;;12.03;;
14474;SDS011;7323;50.848;4.334;2022-10-13T04:52:50;20.27;;;12.23;;
14474;SDS011;7323;50.848;4.334;2022-10-13T04:55:16;18.20;;;12.63;;
14474;SDS011;7323;50.848;4.334;2022-10-13T04:57:42;16.97;;;11.40;;
14474;SDS011;7323;50.848;4.334;2022-10-13T05:00:08;18.33;;;11.40;;
14474;SDS011;7323;50.848;4.334;2022-10-13T05:02:35;17.90;;;11.67;;
14474;SDS011;7323;50.848;4.334;2022-10-13T05:05:02;19.63;;;11.33;;
14474;SDS011;7323;50.848;4.334;2022-10-13T05:07:29;18.67;;;11.67;;
14474;SDS011;7323;50.848;4.334;2022-10-13T05:09:55;21.70;;;12.17;;
14474;SDS011;7323;50.848;4.334;2022-10-13T05:12:22;18.50;;;10.93;;
14474;SDS011;7323;50.848;4.334;2022-10-13T05:14:48;17.33;;;11.17;;
14474;SDS011;7323;50.848;4.334;2022-10-13T05:17:13;21.00;;;11.90;;
14474;SDS011;7323;50.848;4.334;2022-10-13T05:19:39;16.20;;;11.13;;
14474;SDS011;7323;50.848;4.334;2022-10-13T05:22:06;19.17;;;12.23;;
14474;SDS011;7323;50.848;4.334;2022-10-13T05:24:32;20.70;;;11.57;;
14474;SDS011;7323;50.848;4.334;2022-10-13T05:27:04;18.20;;;11.63;;
14474;SDS011;7323;50.848;4.334;2022-10-13T05:29:31;22.30;;;11.83;;
14474;SDS011;7323;50.848;4.334;2022-10-13T05:31:56;16.63;;;12.53;;
14474;SDS011;7323;50.848;4.334;2022-10-13T05:34:22;17.07;;;11.90;;
14474;SDS011;7323;50.848;4.334;2022-10-13T05:36:48;16.40;;;11.60;;
14474;SDS011;7323;50.848;4.334;2022-10-13T05:39:13;21.60;;;11.77;;
14474;SDS011;7323;50.848;4.334;2022-10-13T05:41:39;17.03;;;12.20;;
14474;SDS011;7323;50.848;4.334;2022-10-13T05:44:06;20.03;;;12.37;;
14474;SDS011;7323;50.848;4.334;2022-10-13T05:46:33;20.27;;;11.37;;
14474;SDS011;7323;50.848;4.334;2022-10-13T05:49:02;20.70;;;12.20;;
14474;SDS011;7323;50.848;4.334;2022-10-13T05:57:49;19.53;;;11.40;;
14474;SDS011;7323;50.848;4.334;2022-10-13T06:00:17;21.20;;;13.23;;
14474;SDS011;7323;50.848;4.334;2022-10-13T06:02:49;20.83;;;12.00;;
14474;SDS011;7323;50.848;4.334;2022-10-13T06:05:16;17.60;;;11.70;;
14474;SDS011;7323;50.848;4.334;2022-10-13T06:07:44;20.13;;;11.90;;
14474;SDS011;7323;50.848;4.334;2022-10-13T06:10:13;17.20;;;12.20;;
14474;SDS011;7323;50.848;4.334;2022-10-13T06:12:45;18.27;;;11.77;;
14474;SDS011;7323;50.848;4.334;2022-10-13T06:15:11;17.53;;;11.30;;
14474;SDS011;7323;50.848;4.334;2022-10-13T06:17:37;15.70;;;11.80;;
14474;SDS011;7323;50.848;4.334;2022-10-13T06:20:05;17.97;;;11.87;;
14474;SDS011;7323;50.848;4.334;2022-10-13T06:22:33;20.43;;;10.70;;
14474;SDS011;7323;50.848;4.334;2022-10-13T06:25:00;22.07;;;11.77;;
14474;SDS011;7323;50.848;4.334;2022-10-13T06:27:26;15.17;;;12.00;;
14474;SDS011;7323;50.848;4.334;2022-10-13T06:29:58;20.10;;;11.60;;
14474;SDS011;7323;50.848;4.334;2022-10-13T06:32:25;22.97;;;12.53;;
14474;SDS011;7323;50.848;4.334;2022-10-13T06:34:51;24.77;;;13.77;;
14474;SDS011;7323;50.848;4.334;2022-10-13T06:37:17;19.60;;;13.80;;
14474;SDS011;7323;50.848;4.334;2022-10-13T06:39:43;17.37;;;10.73;;
14474;SDS011;7323;50.848;4.334;2022-10-13T06:42:09;19.97;;;11.87;;
14474;SDS011;7323;50.848;4.334;2022-10-13T06:44:34;19.97;;;11.37;;
14474;SDS011;7323;50.848;4.334;2022-10-13T06:47:01;21.87;;;12.60;;
14474;SDS011;7323;50.848;4.334;2022-10-13T06:49:42;18.20;;;11.00;;
14474;SDS011;7323;50.848;4.334;2022-10-13T06:52:08;22.07;;;11.90;;
14474;SDS011;7323;50.848;4.334;2022-10-13T06:54:33;16.93;;;12.00;;
14474;SDS011;7323;50.848;4.334;2022-10-13T06:56:59;22.27;;;12.60;;
14474;SDS011;7323;50.848;4.334;2022-10-13T06:59:26;20.27;;;12.37;;
14474;SDS011;7323;50.848;4.334;2022-10-13T07:01:51;18.97;;;11.43;;
14474;SDS011;7323;50.848;4.334;2022-10-13T07:04:17;16.70;;;10.90;;
14474;SDS011;7323;50.848;4.334;2022-10-13T07:06:47;17.53;;;11.17;;
14474;SDS011;7323;50.848;4.334;2022-10-13T07:09:21;15.23;;;10.53;;
14474;SDS011;7323;50.848;4.334;2022-10-13T07:11:48;14.60;;;9.97;;
14474;SDS011;7323;50.848;4.334;2022-10-13T07:14:17;17.37;;;10.53;;
14474;SDS011;7323;50.848;4.334;2022-10-13T07:16:48;15.93;;;10.57;;
14474;SDS011;7323;50.848;4.334;2022-10-13T07:21:46;16.40;;;9.67;;
14474;SDS011;7323;50.848;4.334;2022-10-13T07:24:21;14.37;;;9.23;;
14474;SDS011;7323;50.848;4.334;2022-10-13T07:26:47;14.77;;;10.27;;
14474;SDS011;7323;50.848;4.334;2022-10-13T07:29:16;15.97;;;10.53;;
14474;SDS011;7323;50.848;4.334;2022-10-13T07:31:43;14.57;;;9.77;;
14474;SDS011;7323;50.848;4.334;2022-10-13T07:34:09;12.87;;;9.60;;
14474;SDS011;7323;50.848;4.334;2022-10-13T07:36:35;15.10;;;9.73;;
14474;SDS011;7323;50.848;4.334;2022-10-13T07:39:03;13.03;;;9.20;;
14474;SDS011;7323;50.848;4.334;2022-10-13T07:41:30;16.20;;;9.47;;
14474;SDS011;7323;50.848;4.334;2022-10-13T07:43:56;14.67;;;9.70;;
14474;SDS011;7323;50.848;4.334;2022-10-13T07:46:23;13.37;;;9.30;;
14474;SDS011;7323;50.848;4.334;2022-10-13T07:48:51;16.23;;;10.10;;
14474;SDS011;7323;50.848;4.334;2022-10-13T07:51:19;14.07;;;10.03;;
14474;SDS011;7323;50.848;4.334;2022-10-13T07:53:48;14.70;;;10.10;;
14474;SDS011;7323;50.848;4.334;2022-10-13T07:56:32;17.67;;;10.60;;
14474;SDS011;7323;50.848;4.334;2022-10-13T07:59:18;17.27;;;9.57;;
14474;SDS011;7323;50.848;4.334;2022-10-13T08:01:45;18.00;;;9.30;;
14474;SDS011;7323;50.848;4.334;2022-10-13T08:07:26;16.00;;;9.67;;
14474;SDS011;7323;50.848;4.334;2022-10-13T08:12:46;14.27;;;9.63;;
14474;SDS011;7323;50.848;4.334;2022-10-13T08:15:12;15.30;;;9.33;;
14474;SDS011;7323;50.848;4.334;2022-10-13T08:17:38;13.57;;;9.20;;
14474;SDS011;7323;50.848;4.334;2022-10-13T08:20:04;14.73;;;9.30;;
14474;SDS011;7323;50.848;4.334;2022-10-13T08:22:31;14.57;;;9.57;;
14474;SDS011;7323;50.848;4.334;2022-10-13T08:24:58;13.03;;;8.83;;
14474;SDS011;7323;50.848;4.334;2022-10-13T08:27:27;15.77;;;10.13;;
14474;SDS011;7323;50.848;4.334;2022-10-13T08:29:54;12.60;;;8.60;;
14474;SDS011;7323;50.848;4.334;2022-10-13T08:32:23;16.67;;;8.60;;
14474;SDS011;7323;50.848;4.334;2022-10-13T08:34:49;17.27;;;7.97;;
14474;SDS011;7323;50.848;4.334;2022-10-13T08:37:17;15.33;;;8.17;;
14474;SDS011;7323;50.848;4.334;2022-10-13T08:39:43;14.50;;;8.27;;
14474;SDS011;7323;50.848;4.334;2022-10-13T08:42:19;13.33;;;8.27;;
14474;SDS011;7323;50.848;4.334;2022-10-13T08:44:59;12.40;;;7.77;;
14474;SDS011;7323;50.848;4.334;2022-10-13T08:47:32;16.23;;;7.37;;
14474;SDS011;7323;50.848;4.334;2022-10-13T08:50:09;16.50;;;8.03;;
14474;SDS011;7323;50.848;4.334;2022-10-13T08:52:42;13.07;;;7.57;;
14474;SDS011;7323;50.848;4.334;2022-10-13T08:58:05;17.17;;;8.40;;
14474;SDS011;7323;50.848;4.334;2022-10-13T09:00:42;14.80;;;8.07;;
14474;SDS011;7323;50.848;4.334;2022-10-13T09:08:46;11.23;;;7.90;;
14474;SDS011;7323;50.848;4.334;2022-10-13T09:11:16;14.63;;;7.50;;
14474;SDS011;7323;50.848;4.334;2022-10-13T09:13:44;10.87;;;7.37;;
14474;SDS011;7323;50.848;4.334;2022-10-13T09:16:10;13.63;;;8.23;;
14474;SDS011;7323;50.848;4.334;2022-10-13T09:18:36;16.00;;;7.87;;
14474;SDS011;7323;50.848;4.334;2022-10-13T09:23:51;12.10;;;7.90;;
14474;SDS011;7323;50.848;4.334;2022-10-13T09:26:22;11.10;;;7.63;;
14474;SDS011;7323;50.848;4.334;2022-10-13T09:28:50;11.50;;;8.40;;
14474;SDS011;7323;50.848;4.334;2022-10-13T09:31:26;11.97;;;8.00;;
14474;SDS011;7323;50.848;4.334;2022-10-13T09:33:59;13.10;;;7.50;;
14474;SDS011;7323;50.848;4.334;2022-10-13T09:36:27;11.90;;;8.03;;
14474;SDS011;7323;50.848;4.334;2022-10-13T09:41:38;13.30;;;8.50;;
14474;SDS011;7323;50.848;4.334;2022-10-13T09:44:16;13.10;;;9.00;;
14474;SDS011;7323;50.848;4.334;2022-10-13T09:46:46;13.70;;;8.57;;
14474;SDS011;7323;50.848;4.334;2022-10-13T09:51:56;16.10;;;8.53;;
14474;SDS011;7323;50.848;4.334;2022-10-13T09:54:27;15.23;;;8.30;;
14474;SDS011;7323;50.848;4.334;2022-10-13T10:00:23;15.47;;;8.47;;
14474;SDS011;7323;50.848;4.334;2022-10-13T10:08:30;21.70;;;18.03;;
14474;SDS011;7323;50.848;4.334;2022-10-13T10:11:02;19.17;;;14.03;;
14474;SDS011;7323;50.848;4.334;2022-10-13T10:13:33;16.83;;;9.97;;
14474;SDS011;7323;50.848;4.334;2022-10-13T10:19:09;15.43;;;8.87;;
14474;SDS011;7323;50.848;4.334;2022-10-13T10:21:45;13.77;;;9.70;;
14474;SDS011;7323;50.848;4.334;2022-10-13T10:30:03;19.40;;;9.60;;
14474;SDS011;7323;50.848;4.334;2022-10-13T10:46:44;14.07;;;10.83;;
14474;SDS011;7323;50.848;4.334;2022-10-13T10:49:14;16.17;;;10.83;;
14474;SDS011;7323;50.848;4.334;2022-10-13T10:57:58;16.83;;;11.80;;
14474;SDS011;7323;50.848;4.334;2022-10-13T11:00:51;20.13;;;12.40;;
14474;SDS011;7323;50.848;4.334;2022-10-13T11:03:57;16.17;;;12.13;;
14474;SDS011;7323;50.848;4.334;2022-10-13T11:07:03;14.80;;;12.43;;
14474;SDS011;7323;50.848;4.334;2022-10-13T11:10:17;17.70;;;12.37;;
14474;SDS011;7323;50.848;4.334;2022-10-13T11:12:44;19.20;;;12.70;;
14474;SDS011;7323;50.848;4.334;2022-10-13T11:15:22;16.03;;;12.90;;
14474;SDS011;7323;50.848;4.334;2022-10-13T11:21:14;16.57;;;12.93;;
14474;SDS011;7323;50.848;4.334;2022-10-13T11:23:47;16.40;;;12.13;;
14474;SDS011;7323;50.848;4.334;2022-10-13T11:26:39;16.43;;;13.53;;
14474;SDS011;7323;50.848;4.334;2022-10-13T11:29:14;17.30;;;13.77;;
14474;SDS011;7323;50.848;4.334;2022-10-13T11:35:24;15.40;;;12.30;;
14474;SDS011;7323;50.848;4.334;2022-10-13T11:46:33;17.87;;;12.43;;
14474;SDS011;7323;50.848;4.334;2022-10-13T11:55:51;18.67;;;12.27;;
14474;SDS011;7323;50.848;4.334;2022-10-13T11:58:20;15.07;;;11.83;;
14474;SDS011;7323;50.848;4.334;2022-10-13T12:00:57;17.90;;;11.70;;
14474;SDS011;7323;50.848;4.334;2022-10-13T12:03:33;20.83;;;12.57;;
14474;SDS011;7323;50.848;4.334;2022-10-13T12:06:03;19.30;;;12.70;;
14474;SDS011;7323;50.848;4.334;2022-10-13T12:08:32;20.63;;;12.93;;
14474;SDS011;7323;50.848;4.334;2022-10-13T12:11:00;16.30;;;12.13;;
14474;SDS011;7323;50.848;4.334;2022-10-13T12:13:30;17.00;;;13.00;;
14474;SDS011;7323;50.848;4.334;2022-10-13T12:16:03;19.03;;;12.17;;
14474;SDS011;7323;50.848;4.334;2022-10-13T12:18:32;18.03;;;13.57;;
14474;SDS011;7323;50.848;4.334;2022-10-13T12:21:12;17.13;;;13.37;;
14474;SDS011;7323;50.848;4.334;2022-10-13T12:26:14;22.43;;;13.60;;
14474;SDS011;7323;50.848;4.334;2022-10-13T12:31:21;17.90;;;12.83;;
14474;SDS011;7323;50.848;4.334;2022-10-13T12:34:49;16.30;;;12.70;;
14474;SDS011;7323;50.848;4.334;2022-10-13T12:40:16;21.40;;;14.33;;
14474;SDS011;7323;50.848;4.334;2022-10-13T12:42:55;23.47;;;13.67;;
14474;SDS011;7323;50.848;4.334;2022-10-13T12:45:25;20.77;;;13.83;;
14474;SDS011;7323;50.848;4.334;2022-10-13T12:47:55;16.27;;;13.00;;
14474;SDS011;7323;50.848;4.334;2022-10-13T12:52:52;20.37;;;14.63;;
14474;SDS011;7323;50.848;4.334;2022-10-13T12:58:22;18.33;;;15.63;;
14474;SDS011;7323;50.848;4.334;2022-10-13T13:03:31;17.80;;;14.93;;
14474;SDS011;7323;50.848;4.334;2022-10-13T13:06:19;19.03;;;15.40;;
14474;SDS011;7323;50.848;4.334;2022-10-13T13:09:05;16.33;;;14.60;;
14474;SDS011;7323;50.848;4.334;2022-10-13T13:12:01;18.70;;;16.23;;
14474;SDS011;7323;50.848;4.334;2022-10-13T13:19:31;18.67;;;15.90;;
14474;SDS011;7323;50.848;4.334;2022-10-13T13:21:58;22.33;;;16.90;;
14474;SDS011;7323;50.848;4.334;2022-10-13T13:24:23;24.67;;;17.47;;
14474;SDS011;7323;50.848;4.334;2022-10-13T13:26:49;22.67;;;17.80;;
14474;SDS011;7323;50.848;4.334;2022-10-13T13:29:15;21.97;;;18.30;;
14474;SDS011;7323;50.848;4.334;2022-10-13T13:31:41;23.80;;;17.97;;
14474;SDS011;7323;50.848;4.334;2022-10-13T13:42:49;23.17;;;19.50;;
14474;SDS011;7323;50.848;4.334;2022-10-13T13:48:04;21.13;;;18.67;;
14474;SDS011;7323;50.848;4.334;2022-10-13T13:50:34;21.80;;;18.77;;
14474;SDS011;7323;50.848;4.334;2022-10-13T13:53:03;25.20;;;19.03;;
14474;SDS011;7323;50.848;4.334;2022-10-13T13:58:30;22.73;;;18.80;;
14474;SDS011;7323;50.848;4.334;2022-10-13T14:03:34;24.73;;;19.33;;
14474;SDS011;7323;50.848;4.334;2022-10-13T14:12:01;23.90;;;17.47;;
14474;SDS011;7323;50.848;4.334;2022-10-13T14:14:32;20.23;;;16.40;;
14474;SDS011;7323;50.848;4.334;2022-10-13T14:17:00;21.33;;;15.77;;
14474;SDS011;7323;50.848;4.334;2022-10-13T14:19:29;22.63;;;16.00;;
14474;SDS011;7323;50.848;4.334;2022-10-13T14:22:10;17.63;;;15.80;;
14474;SDS011;7323;50.848;4.334;2022-10-13T14:24:41;22.33;;;16.30;;
14474;SDS011;7323;50.848;4.334;2022-10-13T14:27:08;23.10;;;14.47;;
14474;SDS011;7323;50.848;4.334;2022-10-13T14:29:34;18.60;;;13.87;;
14474;SDS011;7323;50.848;4.334;2022-10-13T14:32:02;17.87;;;12.67;;
14474;SDS011;7323;50.848;4.334;2022-10-13T14:34:28;15.83;;;12.50;;
14474;SDS011;7323;50.848;4.334;2022-10-13T14:36:54;18.90;;;12.00;;
14474;SDS011;7323;50.848;4.334;2022-10-13T14:39:25;17.17;;;12.07;;
14474;SDS011;7323;50.848;4.334;2022-10-13T14:41:51;14.73;;;12.03;;
14474;SDS011;7323;50.848;4.334;2022-10-13T14:44:18;16.70;;;11.30;;
14474;SDS011;7323;50.848;4.334;2022-10-13T14:46:44;12.97;;;11.03;;
14474;SDS011;7323;50.848;4.334;2022-10-13T14:49:10;14.53;;;10.80;;
14474;SDS011;7323;50.848;4.334;2022-10-13T14:51:36;13.63;;;10.77;;
14474;SDS011;7323;50.848;4.334;2022-10-13T14:54:02;15.83;;;10.67;;
14474;SDS011;7323;50.848;4.334;2022-10-13T14:56:30;12.33;;;9.80;;
14474;SDS011;7323;50.848;4.334;2022-10-13T14:58:56;10.97;;;9.03;;
14474;SDS011;7323;50.848;4.334;2022-10-13T15:01:23;14.80;;;10.07;;
14474;SDS011;7323;50.848;4.334;2022-10-13T15:03:49;11.17;;;9.63;;
14474;SDS011;7323;50.848;4.334;2022-10-13T15:06:15;10.20;;;9.20;;
14474;SDS011;7323;50.848;4.334;2022-10-13T15:08:45;12.47;;;9.07;;
14474;SDS011;7323;50.848;4.334;2022-10-13T15:11:11;13.10;;;9.43;;
14474;SDS011;7323;50.848;4.334;2022-10-13T15:13:40;12.17;;;9.10;;
14474;SDS011;7323;50.848;4.334;2022-10-13T15:16:13;11.30;;;8.97;;
14474;SDS011;7323;50.848;4.334;2022-10-13T15:18:44;12.43;;;8.43;;
14474;SDS011;7323;50.848;4.334;2022-10-13T15:21:10;10.10;;;8.03;;
14474;SDS011;7323;50.848;4.334;2022-10-13T15:26:07;12.43;;;7.30;;
14474;SDS011;7323;50.848;4.334;2022-10-13T15:28:43;12.17;;;7.10;;
14474;SDS011;7323;50.848;4.334;2022-10-13T15:39:27;14.07;;;7.30;;
14474;SDS011;7323;50.848;4.334;2022-10-13T15:41:52;11.17;;;6.37;;
14474;SDS011;7323;50.848;4.334;2022-10-13T15:44:18;11.60;;;7.70;;
14474;SDS011;7323;50.848;4.334;2022-10-13T15:46:45;11.90;;;6.93;;
14474;SDS011;7323;50.848;4.334;2022-10-13T15:49:10;8.40;;;7.30;;
14474;SDS011;7323;50.848;4.334;2022-10-13T15:51:36;9.10;;;6.97;;
14474;SDS011;7323;50.848;4.334;2022-10-13T15:54:06;11.30;;;7.33;;
14474;SDS011;7323;50.848;4.334;2022-10-13T15:56:31;10.53;;;7.53;;
14474;SDS011;7323;50.848;4.334;2022-10-13T15:59:06;12.93;;;7.30;;
14474;SDS011;7323;50.848;4.334;2022-10-13T16:01:34;10.33;;;7.37;;
14474;SDS011;7323;50.848;4.334;2022-10-13T16:04:00;8.83;;;7.20;;
14474;SDS011;7323;50.848;4.334;2022-10-13T16:06:26;10.13;;;7.40;;
14474;SDS011;7323;50.848;4.334;2022-10-13T16:08:53;12.10;;;6.73;;
14474;SDS011;7323;50.848;4.334;2022-10-13T16:11:25;11.87;;;7.63;;
14474;SDS011;7323;50.848;4.334;2022-10-13T16:13:51;8.30;;;7.40;;
14474;SDS011;7323;50.848;4.334;2022-10-13T16:16:17;8.47;;;7.03;;
14474;SDS011;7323;50.848;4.334;2022-10-13T16:18:46;13.27;;;7.47;;
14474;SDS011;7323;50.848;4.334;2022-10-13T16:21:27;12.23;;;7.63;;
14474;SDS011;7323;50.848;4.334;2022-10-13T16:23:53;12.53;;;7.73;;
14474;SDS011;7323;50.848;4.334;2022-10-13T16:26:19;10.50;;;7.83;;
14474;SDS011;7323;50.848;4.334;2022-10-13T16:28:46;10.90;;;8.60;;
14474;SDS011;7323;50.848;4.334;2022-10-13T16:31:12;10.77;;;8.83;;
14474;SDS011;7323;50.848;4.334;2022-10-13T16:33:49;10.77;;;8.60;;
14474;SDS011;7323;50.848;4.334;2022-10-13T16:36:32;11.00;;;8.70;;
14474;SDS011;7323;50.848;4.334;2022-10-13T16:38:58;10.43;;;8.47;;
14474;SDS011;7323;50.848;4.334;2022-10-13T16:41:23;11.57;;;8.50;;
14474;SDS011;7323;50.848;4.334;2022-10-13T16:43:49;8.73;;;7.83;;
14474;SDS011;7323;50.848;4.334;2022-10-13T16:46:16;10.70;;;8.43;;
14474;SDS011;7323;50.848;4.334;2022-10-13T16:48:44;13.03;;;9.03;;
14474;SDS011;7323;50.848;4.334;2022-10-13T16:51:12;11.27;;;8.63;;
14474;SDS011;7323;50.848;4.334;2022-10-13T16:53:40;12.87;;;9.07;;
14474;SDS011;7323;50.848;4.334;2022-10-13T16:56:09;12.20;;;8.50;;
14474;SDS011;7323;50.848;4.334;2022-10-13T16:58:34;11.13;;;8.97;;
14474;SDS011;7323;50.848;4.334;2022-10-13T17:01:01;11.27;;;8.60;;
14474;SDS011;7323;50.848;4.334;2022-10-13T17:03:35;14.70;;;9.00;;
14474;SDS011;7323;50.848;4.334;2022-10-13T17:06:02;11.50;;;8.30;;
14474;SDS011;7323;50.848;4.334;2022-10-13T17:08:28;9.27;;;8.33;;
14474;SDS011;7323;50.848;4.334;2022-10-13T17:10:54;13.60;;;9.27;;
14474;SDS011;7323;50.848;4.334;2022-10-13T17:13:20;11.53;;;8.93;;
14474;SDS011;7323;50.848;4.334;2022-10-13T17:15:54;11.80;;;8.93;;
14474;SDS011;7323;50.848;4.334;2022-10-13T17:18:24;11.57;;;9.37;;
14474;SDS011;7323;50.848;4.334;2022-10-13T17:20:55;10.13;;;8.60;;
14474;SDS011;7323;50.848;4.334;2022-10-13T17:23:27;12.17;;;9.77;;
14474;SDS011;7323;50.848;4.334;2022-10-13T17:25:54;13.07;;;9.30;;
14474;SDS011;7323;50.848;4.334;2022-10-13T17:28:24;12.57;;;9.50;;
14474;SDS011;7323;50.848;4.334;2022-10-13T17:31:06;12.93;;;10.10;;
14474;SDS011;7323;50.848;4.334;2022-10-13T17:33:36;14.17;;;10.27;;
14474;SDS011;7323;50.848;4.334;2022-10-13T17:38:54;12.93;;;11.17;;
14474;SDS011;7323;50.848;4.334;2022-10-13T17:41:21;16.00;;;10.77;;
14474;SDS011;7323;50.848;4.334;2022-10-13T17:43:48;13.37;;;11.20;;
14474;SDS011;7323;50.848;4.334;2022-10-13T17:46:22;12.70;;;11.40;;
14474;SDS011;7323;50.848;4.334;2022-10-13T17:48:49;11.97;;;10.50;;
14474;SDS011;7323;50.848;4.334;2022-10-13T17:51:16;12.90;;;11.57;;
14474;SDS011;7323;50.848;4.334;2022-10-13T17:53:48;17.00;;;12.50;;
14474;SDS011;7323;50.848;4.334;2022-10-13T17:56:29;13.43;;;12.10;;